sensor_id;sensor_type;location;lat;lon;timestamp;P1;durP1;ratioP1;P2;durP2;ratioP2
14613;SDS011;7393;51.446;6.800;2023-03-01T00:02:20;9.67;;;6.57;;
14613;SDS011;7393;51.446;6.800;2023-03-01T00:04:49;7.80;;;6.27;;
14613;SDS011;7393;51.446;6.800;2023-03-01T00:07:16;12.53;;;6.10;;
14613;SDS011;7393;51.446;6.800;2023-03-01T00:09:42;11.17;;;6.47;;
14613;SDS011;7393;51.446;6.800;2023-03-01T00:12:10;9.33;;;6.13;;
14613;SDS011;7393;51.446;6.800;2023-03-01T00:14:37;8.07;;;6.13;;
14613;SDS011;7393;51.446;6.800;2023-03-01T00:17:04;11.70;;;6.80;;
14613;SDS011;7393;51.446;6.800;2023-03-01T00:19:31;9.27;;;6.20;;
14613;SDS011;7393;51.446;6.800;2023-03-01T00:21:59;9.77;;;6.50;;
14613;SDS011;7393;51.446;6.800;2023-03-01T00:24:25;8.30;;;5.87;;
14613;SDS011;7393;51.446;6.800;2023-03-01T00:26:53;6.67;;;5.23;;
14613;SDS011;7393;51.446;6.800;2023-03-01T00:29:21;8.67;;;6.10;;
14613;SDS011;7393;51.446;6.800;2023-03-01T00:31:47;8.43;;;6.13;;
14613;SDS011;7393;51.446;6.800;2023-03-01T00:34:14;8.60;;;5.63;;
14613;SDS011;7393;51.446;6.800;2023-03-01T00:36:41;9.73;;;6.17;;
14613;SDS011;7393;51.446;6.800;2023-03-01T00:39:10;9.07;;;6.50;;
14613;SDS011;7393;51.446;6.800;2023-03-01T00:41:39;9.33;;;6.17;;
14613;SDS011;7393;51.446;6.800;2023-03-01T00:44:06;8.73;;;5.87;;
14613;SDS011;7393;51.446;6.800;2023-03-01T00:46:33;11.37;;;6.33;;
14613;SDS011;7393;51.446;6.800;2023-03-01T00:48:59;8.63;;;6.40;;
14613;SDS011;7393;51.446;6.800;2023-03-01T00:51:29;13.23;;;6.73;;
14613;SDS011;7393;51.446;6.800;2023-03-01T00:53:57;9.93;;;5.93;;
14613;SDS011;7393;51.446;6.800;2023-03-01T00:56:27;7.23;;;5.73;;
14613;SDS011;7393;51.446;6.800;2023-03-01T00:58:54;9.57;;;5.83;;
14613;SDS011;7393;51.446;6.800;2023-03-01T01:01:21;9.50;;;6.20;;
14613;SDS011;7393;51.446;6.800;2023-03-01T01:03:52;11.90;;;6.30;;
14613;SDS011;7393;51.446;6.800;2023-03-01T01:06:22;8.37;;;6.23;;
14613;SDS011;7393;51.446;6.800;2023-03-01T01:08:50;9.90;;;6.17;;
14613;SDS011;7393;51.446;6.800;2023-03-01T01:11:18;10.33;;;6.47;;
14613;SDS011;7393;51.446;6.800;2023-03-01T01:13:47;8.03;;;5.93;;
14613;SDS011;7393;51.446;6.800;2023-03-01T01:16:15;10.93;;;6.47;;
14613;SDS011;7393;51.446;6.800;2023-03-01T01:18:44;10.77;;;5.47;;
14613;SDS011;7393;51.446;6.800;2023-03-01T01:21:11;9.60;;;6.13;;
14613;SDS011;7393;51.446;6.800;2023-03-01T01:23:41;9.90;;;6.33;;
14613;SDS011;7393;51.446;6.800;2023-03-01T01:26:09;7.93;;;5.70;;
14613;SDS011;7393;51.446;6.800;2023-03-01T01:28:38;9.60;;;6.47;;
14613;SDS011;7393;51.446;6.800;2023-03-01T01:31:06;10.23;;;6.33;;
14613;SDS011;7393;51.446;6.800;2023-03-01T01:33:33;9.93;;;6.20;;
14613;SDS011;7393;51.446;6.800;2023-03-01T01:36:02;9.57;;;6.03;;
14613;SDS011;7393;51.446;6.800;2023-03-01T01:38:29;8.53;;;6.17;;
14613;SDS011;7393;51.446;6.800;2023-03-01T01:40:56;12.27;;;6.23;;
14613;SDS011;7393;51.446;6.800;2023-03-01T01:43:24;10.47;;;6.40;;
14613;SDS011;7393;51.446;6.800;2023-03-01T01:45:53;8.83;;;6.20;;
14613;SDS011;7393;51.446;6.800;2023-03-01T01:48:26;8.63;;;5.93;;
14613;SDS011;7393;51.446;6.800;2023-03-01T01:51:05;9.67;;;5.60;;
14613;SDS011;7393;51.446;6.800;2023-03-01T01:53:35;13.07;;;6.67;;
14613;SDS011;7393;51.446;6.800;2023-03-01T01:56:03;11.57;;;6.47;;
14613;SDS011;7393;51.446;6.800;2023-03-01T01:58:34;10.03;;;5.87;;
14613;SDS011;7393;51.446;6.800;2023-03-01T02:01:02;9.63;;;6.27;;
14613;SDS011;7393;51.446;6.800;2023-03-01T02:03:31;10.10;;;6.80;;
14613;SDS011;7393;51.446;6.800;2023-03-01T02:06:03;14.07;;;6.70;;
14613;SDS011;7393;51.446;6.800;2023-03-01T02:08:33;8.47;;;6.03;;
14613;SDS011;7393;51.446;6.800;2023-03-01T02:11:03;13.50;;;6.63;;
14613;SDS011;7393;51.446;6.800;2023-03-01T02:13:31;9.63;;;6.53;;
14613;SDS011;7393;51.446;6.800;2023-03-01T02:15:58;8.73;;;6.07;;
14613;SDS011;7393;51.446;6.800;2023-03-01T02:18:28;8.70;;;6.20;;
14613;SDS011;7393;51.446;6.800;2023-03-01T02:20:59;11.43;;;5.90;;
14613;SDS011;7393;51.446;6.800;2023-03-01T02:23:34;10.10;;;6.87;;
14613;SDS011;7393;51.446;6.800;2023-03-01T02:26:04;10.37;;;6.33;;
14613;SDS011;7393;51.446;6.800;2023-03-01T02:28:37;10.33;;;6.50;;
14613;SDS011;7393;51.446;6.800;2023-03-01T02:31:07;9.20;;;6.37;;
14613;SDS011;7393;51.446;6.800;2023-03-01T02:33:54;9.73;;;6.53;;
14613;SDS011;7393;51.446;6.800;2023-03-01T02:36:23;11.10;;;6.53;;
14613;SDS011;7393;51.446;6.800;2023-03-01T02:38:53;13.13;;;6.20;;
14613;SDS011;7393;51.446;6.800;2023-03-01T02:41:24;11.70;;;6.43;;
14613;SDS011;7393;51.446;6.800;2023-03-01T02:43:55;12.57;;;6.80;;
14613;SDS011;7393;51.446;6.800;2023-03-01T02:46:23;15.73;;;6.80;;
14613;SDS011;7393;51.446;6.800;2023-03-01T02:48:52;19.13;;;7.17;;
14613;SDS011;7393;51.446;6.800;2023-03-01T02:54:13;15.40;;;6.77;;
14613;SDS011;7393;51.446;6.800;2023-03-01T02:56:47;21.50;;;7.20;;
14613;SDS011;7393;51.446;6.800;2023-03-01T02:59:17;16.13;;;7.20;;
14613;SDS011;7393;51.446;6.800;2023-03-01T03:01:46;15.53;;;6.90;;
14613;SDS011;7393;51.446;6.800;2023-03-01T03:04:14;10.23;;;6.83;;
14613;SDS011;7393;51.446;6.800;2023-03-01T03:06:43;14.97;;;7.53;;
14613;SDS011;7393;51.446;6.800;2023-03-01T03:09:10;11.00;;;6.43;;
14613;SDS011;7393;51.446;6.800;2023-03-01T03:11:37;11.00;;;6.97;;
14613;SDS011;7393;51.446;6.800;2023-03-01T03:14:06;11.67;;;7.33;;
14613;SDS011;7393;51.446;6.800;2023-03-01T03:16:39;9.80;;;6.97;;
14613;SDS011;7393;51.446;6.800;2023-03-01T03:19:06;8.57;;;6.50;;
14613;SDS011;7393;51.446;6.800;2023-03-01T03:21:33;10.77;;;7.00;;
14613;SDS011;7393;51.446;6.800;2023-03-01T03:24:00;11.47;;;7.47;;
14613;SDS011;7393;51.446;6.800;2023-03-01T03:26:27;9.20;;;6.77;;
14613;SDS011;7393;51.446;6.800;2023-03-01T03:28:54;7.80;;;6.40;;
14613;SDS011;7393;51.446;6.800;2023-03-01T03:31:22;11.23;;;7.20;;
14613;SDS011;7393;51.446;6.800;2023-03-01T03:33:50;12.50;;;6.33;;
14613;SDS011;7393;51.446;6.800;2023-03-01T03:36:17;8.80;;;6.77;;
14613;SDS011;7393;51.446;6.800;2023-03-01T03:38:45;10.13;;;7.10;;
14613;SDS011;7393;51.446;6.800;2023-03-01T03:41:13;8.87;;;6.63;;
14613;SDS011;7393;51.446;6.800;2023-03-01T03:43:41;10.17;;;6.53;;
14613;SDS011;7393;51.446;6.800;2023-03-01T03:46:08;8.97;;;6.90;;
14613;SDS011;7393;51.446;6.800;2023-03-01T03:48:38;8.43;;;6.73;;
14613;SDS011;7393;51.446;6.800;2023-03-01T03:51:09;10.20;;;6.80;;
14613;SDS011;7393;51.446;6.800;2023-03-01T03:53:36;10.73;;;7.33;;
14613;SDS011;7393;51.446;6.800;2023-03-01T03:56:03;10.27;;;6.33;;
14613;SDS011;7393;51.446;6.800;2023-03-01T03:58:31;11.70;;;8.07;;
14613;SDS011;7393;51.446;6.800;2023-03-01T04:00:58;11.43;;;7.67;;
14613;SDS011;7393;51.446;6.800;2023-03-01T04:03:26;12.07;;;6.97;;
14613;SDS011;7393;51.446;6.800;2023-03-01T04:05:53;10.10;;;6.60;;
14613;SDS011;7393;51.446;6.800;2023-03-01T04:08:22;9.27;;;7.10;;
14613;SDS011;7393;51.446;6.800;2023-03-01T04:10:50;8.67;;;6.30;;
14613;SDS011;7393;51.446;6.800;2023-03-01T04:13:19;12.57;;;7.20;;
14613;SDS011;7393;51.446;6.800;2023-03-01T04:15:48;9.67;;;7.33;;
14613;SDS011;7393;51.446;6.800;2023-03-01T04:18:15;10.30;;;7.40;;
14613;SDS011;7393;51.446;6.800;2023-03-01T04:20:43;9.73;;;7.17;;
14613;SDS011;7393;51.446;6.800;2023-03-01T04:23:11;10.53;;;6.90;;
14613;SDS011;7393;51.446;6.800;2023-03-01T04:25:44;10.00;;;7.37;;
14613;SDS011;7393;51.446;6.800;2023-03-01T04:28:14;12.50;;;7.43;;
14613;SDS011;7393;51.446;6.800;2023-03-01T04:30:41;9.27;;;6.93;;
14613;SDS011;7393;51.446;6.800;2023-03-01T04:33:08;10.90;;;7.20;;
14613;SDS011;7393;51.446;6.800;2023-03-01T04:35:36;11.23;;;7.00;;
14613;SDS011;7393;51.446;6.800;2023-03-01T04:38:03;10.33;;;7.43;;
14613;SDS011;7393;51.446;6.800;2023-03-01T04:40:30;9.87;;;7.63;;
14613;SDS011;7393;51.446;6.800;2023-03-01T04:42:58;10.27;;;7.03;;
14613;SDS011;7393;51.446;6.800;2023-03-01T04:45:26;12.23;;;7.27;;
14613;SDS011;7393;51.446;6.800;2023-03-01T04:47:53;9.00;;;7.13;;
14613;SDS011;7393;51.446;6.800;2023-03-01T04:50:23;9.87;;;6.90;;
14613;SDS011;7393;51.446;6.800;2023-03-01T04:52:50;10.50;;;7.10;;
14613;SDS011;7393;51.446;6.800;2023-03-01T04:55:17;9.43;;;6.83;;
14613;SDS011;7393;51.446;6.800;2023-03-01T04:57:44;11.17;;;6.97;;
14613;SDS011;7393;51.446;6.800;2023-03-01T05:00:13;8.77;;;6.63;;
14613;SDS011;7393;51.446;6.800;2023-03-01T05:02:50;12.87;;;7.23;;
14613;SDS011;7393;51.446;6.800;2023-03-01T05:05:19;10.90;;;7.33;;
14613;SDS011;7393;51.446;6.800;2023-03-01T05:07:50;11.40;;;7.70;;
14613;SDS011;7393;51.446;6.800;2023-03-01T05:10:18;12.27;;;7.60;;
14613;SDS011;7393;51.446;6.800;2023-03-01T05:12:44;13.30;;;7.07;;
14613;SDS011;7393;51.446;6.800;2023-03-01T05:15:13;9.67;;;7.40;;
14613;SDS011;7393;51.446;6.800;2023-03-01T05:17:40;12.00;;;7.13;;
14613;SDS011;7393;51.446;6.800;2023-03-01T05:20:07;10.63;;;7.53;;
14613;SDS011;7393;51.446;6.800;2023-03-01T05:22:35;16.93;;;8.77;;
14613;SDS011;7393;51.446;6.800;2023-03-01T05:25:03;14.50;;;7.90;;
14613;SDS011;7393;51.446;6.800;2023-03-01T05:27:32;11.67;;;7.50;;
14613;SDS011;7393;51.446;6.800;2023-03-01T05:29:59;13.40;;;8.27;;
14613;SDS011;7393;51.446;6.800;2023-03-01T05:32:39;10.93;;;7.60;;
14613;SDS011;7393;51.446;6.800;2023-03-01T05:35:11;10.80;;;7.40;;
14613;SDS011;7393;51.446;6.800;2023-03-01T05:37:40;15.17;;;8.03;;
14613;SDS011;7393;51.446;6.800;2023-03-01T05:40:08;11.60;;;7.00;;
14613;SDS011;7393;51.446;6.800;2023-03-01T05:42:41;14.17;;;7.87;;
14613;SDS011;7393;51.446;6.800;2023-03-01T05:45:09;13.07;;;7.80;;
14613;SDS011;7393;51.446;6.800;2023-03-01T05:47:37;10.33;;;7.90;;
14613;SDS011;7393;51.446;6.800;2023-03-01T05:50:06;13.47;;;8.60;;
14613;SDS011;7393;51.446;6.800;2023-03-01T05:52:33;12.90;;;8.50;;
14613;SDS011;7393;51.446;6.800;2023-03-01T05:55:00;10.30;;;7.40;;
14613;SDS011;7393;51.446;6.800;2023-03-01T05:57:27;10.73;;;7.07;;
14613;SDS011;7393;51.446;6.800;2023-03-01T05:59:54;13.30;;;7.87;;
14613;SDS011;7393;51.446;6.800;2023-03-01T06:02:21;11.40;;;7.60;;
14613;SDS011;7393;51.446;6.800;2023-03-01T06:04:48;11.63;;;8.23;;
14613;SDS011;7393;51.446;6.800;2023-03-01T06:07:17;12.73;;;8.50;;
14613;SDS011;7393;51.446;6.800;2023-03-01T06:09:43;16.20;;;7.60;;
14613;SDS011;7393;51.446;6.800;2023-03-01T06:12:10;13.43;;;7.33;;
14613;SDS011;7393;51.446;6.800;2023-03-01T06:14:37;11.10;;;7.77;;
14613;SDS011;7393;51.446;6.800;2023-03-01T06:17:04;10.73;;;7.53;;
14613;SDS011;7393;51.446;6.800;2023-03-01T06:19:30;11.50;;;7.97;;
14613;SDS011;7393;51.446;6.800;2023-03-01T06:21:57;12.63;;;8.30;;
14613;SDS011;7393;51.446;6.800;2023-03-01T06:24:25;12.10;;;8.73;;
14613;SDS011;7393;51.446;6.800;2023-03-01T06:26:53;10.80;;;8.40;;
14613;SDS011;7393;51.446;6.800;2023-03-01T06:29:20;11.33;;;8.13;;
14613;SDS011;7393;51.446;6.800;2023-03-01T06:31:47;13.77;;;8.17;;
14613;SDS011;7393;51.446;6.800;2023-03-01T06:34:14;11.90;;;8.53;;
14613;SDS011;7393;51.446;6.800;2023-03-01T06:36:41;13.67;;;8.23;;
14613;SDS011;7393;51.446;6.800;2023-03-01T06:39:07;13.10;;;8.37;;
14613;SDS011;7393;51.446;6.800;2023-03-01T06:41:36;14.07;;;8.47;;
14613;SDS011;7393;51.446;6.800;2023-03-01T06:44:03;13.60;;;7.73;;
14613;SDS011;7393;51.446;6.800;2023-03-01T06:46:30;12.93;;;8.47;;
14613;SDS011;7393;51.446;6.800;2023-03-01T06:48:57;13.57;;;9.10;;
14613;SDS011;7393;51.446;6.800;2023-03-01T06:51:23;11.80;;;8.17;;
14613;SDS011;7393;51.446;6.800;2023-03-01T06:53:50;13.83;;;8.17;;
14613;SDS011;7393;51.446;6.800;2023-03-01T06:56:17;11.87;;;8.17;;
14613;SDS011;7393;51.446;6.800;2023-03-01T06:58:45;12.87;;;8.73;;
14613;SDS011;7393;51.446;6.800;2023-03-01T07:01:11;11.60;;;8.13;;
14613;SDS011;7393;51.446;6.800;2023-03-01T07:03:38;13.20;;;8.43;;
14613;SDS011;7393;51.446;6.800;2023-03-01T07:06:05;12.43;;;8.37;;
14613;SDS011;7393;51.446;6.800;2023-03-01T07:08:32;10.90;;;8.10;;
14613;SDS011;7393;51.446;6.800;2023-03-01T07:10:59;13.87;;;8.50;;
14613;SDS011;7393;51.446;6.800;2023-03-01T07:13:26;12.60;;;9.03;;
14613;SDS011;7393;51.446;6.800;2023-03-01T07:15:55;14.60;;;8.83;;
14613;SDS011;7393;51.446;6.800;2023-03-01T07:18:21;12.40;;;8.87;;
14613;SDS011;7393;51.446;6.800;2023-03-01T07:20:48;12.90;;;8.50;;
14613;SDS011;7393;51.446;6.800;2023-03-01T07:23:15;12.87;;;8.57;;
14613;SDS011;7393;51.446;6.800;2023-03-01T07:25:42;14.20;;;8.23;;
14613;SDS011;7393;51.446;6.800;2023-03-01T07:28:09;12.90;;;9.30;;
14613;SDS011;7393;51.446;6.800;2023-03-01T07:30:35;13.97;;;9.17;;
14613;SDS011;7393;51.446;6.800;2023-03-01T07:33:03;12.67;;;9.03;;
14613;SDS011;7393;51.446;6.800;2023-03-01T07:35:30;13.60;;;8.60;;
14613;SDS011;7393;51.446;6.800;2023-03-01T07:37:58;14.23;;;9.03;;
14613;SDS011;7393;51.446;6.800;2023-03-01T07:40:25;13.10;;;8.43;;
14613;SDS011;7393;51.446;6.800;2023-03-01T07:42:54;14.30;;;9.50;;
14613;SDS011;7393;51.446;6.800;2023-03-01T07:45:21;14.17;;;9.10;;
14613;SDS011;7393;51.446;6.800;2023-03-01T07:47:49;14.63;;;9.10;;
14613;SDS011;7393;51.446;6.800;2023-03-01T07:50:18;15.73;;;9.90;;
14613;SDS011;7393;51.446;6.800;2023-03-01T07:52:45;12.70;;;8.53;;
14613;SDS011;7393;51.446;6.800;2023-03-01T07:55:13;13.63;;;8.87;;
14613;SDS011;7393;51.446;6.800;2023-03-01T07:57:40;13.53;;;8.93;;
14613;SDS011;7393;51.446;6.800;2023-03-01T08:00:07;16.33;;;8.97;;
14613;SDS011;7393;51.446;6.800;2023-03-01T08:02:36;11.37;;;9.20;;
14613;SDS011;7393;51.446;6.800;2023-03-01T08:05:03;13.13;;;8.60;;
14613;SDS011;7393;51.446;6.800;2023-03-01T08:07:32;15.80;;;9.30;;
14613;SDS011;7393;51.446;6.800;2023-03-01T08:09:59;14.77;;;8.90;;
14613;SDS011;7393;51.446;6.800;2023-03-01T08:12:26;13.80;;;8.97;;
14613;SDS011;7393;51.446;6.800;2023-03-01T08:14:53;12.50;;;8.50;;
14613;SDS011;7393;51.446;6.800;2023-03-01T08:17:20;11.77;;;8.27;;
14613;SDS011;7393;51.446;6.800;2023-03-01T08:19:47;14.53;;;8.57;;
14613;SDS011;7393;51.446;6.800;2023-03-01T08:22:13;14.43;;;8.63;;
14613;SDS011;7393;51.446;6.800;2023-03-01T08:24:42;13.20;;;8.33;;
14613;SDS011;7393;51.446;6.800;2023-03-01T08:27:08;13.10;;;8.77;;
14613;SDS011;7393;51.446;6.800;2023-03-01T08:29:37;13.63;;;8.83;;
14613;SDS011;7393;51.446;6.800;2023-03-01T08:32:04;14.23;;;8.93;;
14613;SDS011;7393;51.446;6.800;2023-03-01T08:34:30;15.37;;;8.27;;
14613;SDS011;7393;51.446;6.800;2023-03-01T08:36:57;13.33;;;7.63;;
14613;SDS011;7393;51.446;6.800;2023-03-01T08:39:24;11.53;;;9.00;;
14613;SDS011;7393;51.446;6.800;2023-03-01T08:41:52;11.43;;;8.20;;
14613;SDS011;7393;51.446;6.800;2023-03-01T08:44:19;14.27;;;7.90;;
14613;SDS011;7393;51.446;6.800;2023-03-01T08:46:46;15.93;;;7.63;;
14613;SDS011;7393;51.446;6.800;2023-03-01T08:49:15;11.10;;;7.67;;
14613;SDS011;7393;51.446;6.800;2023-03-01T08:51:43;11.33;;;7.77;;
14613;SDS011;7393;51.446;6.800;2023-03-01T08:54:12;11.33;;;7.50;;
14613;SDS011;7393;51.446;6.800;2023-03-01T08:56:39;11.57;;;7.57;;
14613;SDS011;7393;51.446;6.800;2023-03-01T08:59:08;11.03;;;7.07;;
14613;SDS011;7393;51.446;6.800;2023-03-01T09:01:35;10.90;;;7.43;;
14613;SDS011;7393;51.446;6.800;2023-03-01T09:04:03;9.47;;;7.13;;
14613;SDS011;7393;51.446;6.800;2023-03-01T09:06:30;11.90;;;7.57;;
14613;SDS011;7393;51.446;6.800;2023-03-01T09:08:58;11.07;;;7.77;;
14613;SDS011;7393;51.446;6.800;2023-03-01T09:11:24;12.67;;;6.93;;
14613;SDS011;7393;51.446;6.800;2023-03-01T09:13:52;9.47;;;7.20;;
14613;SDS011;7393;51.446;6.800;2023-03-01T09:16:20;12.43;;;7.60;;
14613;SDS011;7393;51.446;6.800;2023-03-01T09:18:48;11.97;;;7.50;;
14613;SDS011;7393;51.446;6.800;2023-03-01T09:21:16;9.00;;;6.87;;
14613;SDS011;7393;51.446;6.800;2023-03-01T09:23:46;11.00;;;6.80;;
14613;SDS011;7393;51.446;6.800;2023-03-01T09:26:14;11.90;;;7.23;;
14613;SDS011;7393;51.446;6.800;2023-03-01T09:28:44;10.37;;;7.47;;
14613;SDS011;7393;51.446;6.800;2023-03-01T09:31:11;9.47;;;7.40;;
14613;SDS011;7393;51.446;6.800;2023-03-01T09:33:40;10.83;;;7.40;;
14613;SDS011;7393;51.446;6.800;2023-03-01T09:36:09;10.53;;;6.90;;
14613;SDS011;7393;51.446;6.800;2023-03-01T09:38:38;9.00;;;7.17;;
14613;SDS011;7393;51.446;6.800;2023-03-01T09:41:09;9.50;;;6.77;;
14613;SDS011;7393;51.446;6.800;2023-03-01T09:43:46;12.43;;;6.70;;
14613;SDS011;7393;51.446;6.800;2023-03-01T09:46:19;9.37;;;7.07;;
14613;SDS011;7393;51.446;6.800;2023-03-01T09:48:50;11.97;;;7.10;;
14613;SDS011;7393;51.446;6.800;2023-03-01T09:51:22;10.03;;;6.43;;
14613;SDS011;7393;51.446;6.800;2023-03-01T09:53:53;9.37;;;6.50;;
14613;SDS011;7393;51.446;6.800;2023-03-01T09:56:22;9.73;;;7.13;;
14613;SDS011;7393;51.446;6.800;2023-03-01T09:58:56;12.53;;;6.90;;
14613;SDS011;7393;51.446;6.800;2023-03-01T10:01:29;8.90;;;6.73;;
14613;SDS011;7393;51.446;6.800;2023-03-01T10:06:58;9.37;;;6.20;;
14613;SDS011;7393;51.446;6.800;2023-03-01T10:09:33;9.83;;;6.43;;
14613;SDS011;7393;51.446;6.800;2023-03-01T10:12:02;8.33;;;6.37;;
14613;SDS011;7393;51.446;6.800;2023-03-01T10:14:35;10.13;;;6.57;;
14613;SDS011;7393;51.446;6.800;2023-03-01T10:17:08;8.47;;;6.23;;
14613;SDS011;7393;51.446;6.800;2023-03-01T10:19:40;9.67;;;6.50;;
14613;SDS011;7393;51.446;6.800;2023-03-01T10:22:11;10.80;;;7.07;;
14613;SDS011;7393;51.446;6.800;2023-03-01T10:24:41;7.30;;;5.93;;
14613;SDS011;7393;51.446;6.800;2023-03-01T10:27:09;9.33;;;6.80;;
14613;SDS011;7393;51.446;6.800;2023-03-01T10:29:44;10.33;;;6.77;;
14613;SDS011;7393;51.446;6.800;2023-03-01T10:32:15;10.23;;;6.27;;
14613;SDS011;7393;51.446;6.800;2023-03-01T10:34:45;10.83;;;6.10;;
14613;SDS011;7393;51.446;6.800;2023-03-01T10:37:12;8.97;;;5.63;;
14613;SDS011;7393;51.446;6.800;2023-03-01T10:39:56;8.67;;;5.97;;
14613;SDS011;7393;51.446;6.800;2023-03-01T10:42:28;9.30;;;6.00;;
14613;SDS011;7393;51.446;6.800;2023-03-01T10:44:56;7.37;;;6.00;;
14613;SDS011;7393;51.446;6.800;2023-03-01T10:47:24;11.00;;;6.27;;
14613;SDS011;7393;51.446;6.800;2023-03-01T10:49:55;8.97;;;6.07;;
14613;SDS011;7393;51.446;6.800;2023-03-01T10:52:25;7.70;;;5.83;;
14613;SDS011;7393;51.446;6.800;2023-03-01T10:54:54;9.67;;;5.97;;
14613;SDS011;7393;51.446;6.800;2023-03-01T10:57:36;7.57;;;5.13;;
14613;SDS011;7393;51.446;6.800;2023-03-01T11:00:18;8.97;;;5.70;;
14613;SDS011;7393;51.446;6.800;2023-03-01T11:02:47;7.90;;;5.43;;
14613;SDS011;7393;51.446;6.800;2023-03-01T11:05:18;7.60;;;5.43;;
14613;SDS011;7393;51.446;6.800;2023-03-01T11:07:49;10.90;;;5.30;;
14613;SDS011;7393;51.446;6.800;2023-03-01T11:10:18;7.93;;;5.50;;
14613;SDS011;7393;51.446;6.800;2023-03-01T11:12:46;10.80;;;5.73;;
14613;SDS011;7393;51.446;6.800;2023-03-01T11:15:20;8.27;;;5.43;;
14613;SDS011;7393;51.446;6.800;2023-03-01T11:17:49;7.47;;;5.33;;
14613;SDS011;7393;51.446;6.800;2023-03-01T11:20:20;8.07;;;5.13;;
14613;SDS011;7393;51.446;6.800;2023-03-01T11:22:53;7.17;;;5.07;;
14613;SDS011;7393;51.446;6.800;2023-03-01T11:25:24;9.50;;;5.70;;
14613;SDS011;7393;51.446;6.800;2023-03-01T11:27:52;8.73;;;5.63;;
14613;SDS011;7393;51.446;6.800;2023-03-01T11:30:21;7.70;;;5.43;;
14613;SDS011;7393;51.446;6.800;2023-03-01T11:32:55;8.70;;;5.37;;
14613;SDS011;7393;51.446;6.800;2023-03-01T11:35:33;9.53;;;5.53;;
14613;SDS011;7393;51.446;6.800;2023-03-01T11:38:06;6.83;;;5.07;;
14613;SDS011;7393;51.446;6.800;2023-03-01T11:40:43;8.77;;;5.17;;
14613;SDS011;7393;51.446;6.800;2023-03-01T11:43:15;8.43;;;4.63;;
14613;SDS011;7393;51.446;6.800;2023-03-01T11:45:51;9.83;;;5.73;;
14613;SDS011;7393;51.446;6.800;2023-03-01T11:48:43;6.77;;;5.20;;
14613;SDS011;7393;51.446;6.800;2023-03-01T11:51:19;9.57;;;5.43;;
14613;SDS011;7393;51.446;6.800;2023-03-01T11:53:53;7.77;;;5.57;;
14613;SDS011;7393;51.446;6.800;2023-03-01T11:56:31;8.63;;;5.27;;
14613;SDS011;7393;51.446;6.800;2023-03-01T11:59:18;6.83;;;5.13;;
14613;SDS011;7393;51.446;6.800;2023-03-01T12:02:12;10.00;;;4.83;;
14613;SDS011;7393;51.446;6.800;2023-03-01T12:04:52;7.70;;;5.07;;
14613;SDS011;7393;51.446;6.800;2023-03-01T12:07:43;9.27;;;4.87;;
14613;SDS011;7393;51.446;6.800;2023-03-01T12:10:19;8.23;;;5.37;;
14613;SDS011;7393;51.446;6.800;2023-03-01T12:15:51;7.83;;;5.00;;
14613;SDS011;7393;51.446;6.800;2023-03-01T12:18:42;6.87;;;5.47;;
14613;SDS011;7393;51.446;6.800;2023-03-01T12:21:23;8.47;;;5.27;;
14613;SDS011;7393;51.446;6.800;2023-03-01T12:24:04;7.60;;;5.13;;
14613;SDS011;7393;51.446;6.800;2023-03-01T12:26:41;7.13;;;5.40;;
14613;SDS011;7393;51.446;6.800;2023-03-01T12:29:20;9.13;;;5.70;;
14613;SDS011;7393;51.446;6.800;2023-03-01T12:34:49;9.83;;;5.43;;
14613;SDS011;7393;51.446;6.800;2023-03-01T12:37:40;8.43;;;5.03;;
14613;SDS011;7393;51.446;6.800;2023-03-01T12:40:23;10.07;;;5.10;;
14613;SDS011;7393;51.446;6.800;2023-03-01T12:43:03;5.77;;;4.73;;
14613;SDS011;7393;51.446;6.800;2023-03-01T12:45:48;7.53;;;5.37;;
14613;SDS011;7393;51.446;6.800;2023-03-01T12:48:32;7.33;;;5.00;;
14613;SDS011;7393;51.446;6.800;2023-03-01T12:51:07;9.30;;;5.20;;
14613;SDS011;7393;51.446;6.800;2023-03-01T12:53:39;7.40;;;5.53;;
14613;SDS011;7393;51.446;6.800;2023-03-01T12:56:10;7.33;;;5.37;;
14613;SDS011;7393;51.446;6.800;2023-03-01T12:58:40;9.63;;;5.60;;
14613;SDS011;7393;51.446;6.800;2023-03-01T13:01:18;8.40;;;5.57;;
14613;SDS011;7393;51.446;6.800;2023-03-01T13:06:50;8.27;;;5.57;;
14613;SDS011;7393;51.446;6.800;2023-03-01T13:09:25;8.80;;;5.63;;
14613;SDS011;7393;51.446;6.800;2023-03-01T13:12:02;6.47;;;5.13;;
14613;SDS011;7393;51.446;6.800;2023-03-01T13:17:32;6.87;;;5.17;;
14613;SDS011;7393;51.446;6.800;2023-03-01T13:20:11;7.53;;;5.40;;
14613;SDS011;7393;51.446;6.800;2023-03-01T13:22:42;7.37;;;5.33;;
14613;SDS011;7393;51.446;6.800;2023-03-01T13:25:13;8.40;;;5.70;;
14613;SDS011;7393;51.446;6.800;2023-03-01T13:27:44;6.53;;;5.07;;
14613;SDS011;7393;51.446;6.800;2023-03-01T13:30:38;7.67;;;5.10;;
14613;SDS011;7393;51.446;6.800;2023-03-01T13:33:33;7.33;;;5.37;;
14613;SDS011;7393;51.446;6.800;2023-03-01T13:36:10;7.60;;;5.03;;
14613;SDS011;7393;51.446;6.800;2023-03-01T13:39:02;6.67;;;5.07;;
14613;SDS011;7393;51.446;6.800;2023-03-01T13:41:49;7.53;;;5.30;;
14613;SDS011;7393;51.446;6.800;2023-03-01T13:44:21;7.17;;;5.30;;
14613;SDS011;7393;51.446;6.800;2023-03-01T13:46:53;7.70;;;5.53;;
14613;SDS011;7393;51.446;6.800;2023-03-01T13:49:22;9.40;;;5.87;;
14613;SDS011;7393;51.446;6.800;2023-03-01T13:51:53;5.97;;;4.90;;
14613;SDS011;7393;51.446;6.800;2023-03-01T13:54:22;6.07;;;4.83;;
14613;SDS011;7393;51.446;6.800;2023-03-01T13:56:52;9.17;;;5.50;;
14613;SDS011;7393;51.446;6.800;2023-03-01T13:59:21;7.13;;;5.40;;
14613;SDS011;7393;51.446;6.800;2023-03-01T14:01:51;7.67;;;5.40;;
14613;SDS011;7393;51.446;6.800;2023-03-01T14:04:20;7.93;;;5.83;;
14613;SDS011;7393;51.446;6.800;2023-03-01T14:06:48;8.10;;;5.97;;
14613;SDS011;7393;51.446;6.800;2023-03-01T14:09:16;7.40;;;5.60;;
14613;SDS011;7393;51.446;6.800;2023-03-01T14:14:45;7.97;;;5.73;;
14613;SDS011;7393;51.446;6.800;2023-03-01T14:17:25;8.43;;;5.57;;
14613;SDS011;7393;51.446;6.800;2023-03-01T14:20:09;8.27;;;6.20;;
14613;SDS011;7393;51.446;6.800;2023-03-01T14:22:40;9.00;;;6.27;;
14613;SDS011;7393;51.446;6.800;2023-03-01T14:25:16;7.27;;;6.07;;
14613;SDS011;7393;51.446;6.800;2023-03-01T14:27:50;8.27;;;6.00;;
14613;SDS011;7393;51.446;6.800;2023-03-01T14:30:23;8.60;;;6.73;;
14613;SDS011;7393;51.446;6.800;2023-03-01T14:32:53;9.43;;;6.20;;
14613;SDS011;7393;51.446;6.800;2023-03-01T14:35:22;8.37;;;6.17;;
14613;SDS011;7393;51.446;6.800;2023-03-01T14:37:50;8.10;;;6.37;;
14613;SDS011;7393;51.446;6.800;2023-03-01T14:40:22;8.63;;;6.17;;
14613;SDS011;7393;51.446;6.800;2023-03-01T14:42:50;12.67;;;7.10;;
14613;SDS011;7393;51.446;6.800;2023-03-01T14:45:19;10.40;;;6.47;;
14613;SDS011;7393;51.446;6.800;2023-03-01T14:47:47;9.57;;;6.83;;
14613;SDS011;7393;51.446;6.800;2023-03-01T14:50:20;9.00;;;6.43;;
14613;SDS011;7393;51.446;6.800;2023-03-01T14:52:51;8.60;;;6.23;;
14613;SDS011;7393;51.446;6.800;2023-03-01T14:55:20;10.20;;;6.70;;
14613;SDS011;7393;51.446;6.800;2023-03-01T14:57:51;10.80;;;7.00;;
14613;SDS011;7393;51.446;6.800;2023-03-01T15:00:19;11.40;;;6.73;;
14613;SDS011;7393;51.446;6.800;2023-03-01T15:02:51;11.03;;;8.03;;
14613;SDS011;7393;51.446;6.800;2023-03-01T15:05:22;12.60;;;7.57;;
14613;SDS011;7393;51.446;6.800;2023-03-01T15:07:53;8.23;;;6.77;;
14613;SDS011;7393;51.446;6.800;2023-03-01T15:10:22;9.00;;;6.50;;
14613;SDS011;7393;51.446;6.800;2023-03-01T15:12:51;10.50;;;7.37;;
14613;SDS011;7393;51.446;6.800;2023-03-01T15:15:20;8.87;;;6.70;;
14613;SDS011;7393;51.446;6.800;2023-03-01T15:17:58;9.40;;;6.63;;
14613;SDS011;7393;51.446;6.800;2023-03-01T15:20:26;9.90;;;7.20;;
14613;SDS011;7393;51.446;6.800;2023-03-01T15:22:55;12.00;;;8.47;;
14613;SDS011;7393;51.446;6.800;2023-03-01T15:25:23;11.00;;;6.60;;
14613;SDS011;7393;51.446;6.800;2023-03-01T15:27:52;10.13;;;6.80;;
14613;SDS011;7393;51.446;6.800;2023-03-01T15:30:21;11.30;;;6.70;;
14613;SDS011;7393;51.446;6.800;2023-03-01T15:35:45;10.13;;;5.93;;